createdAt,value
2023-01-23T00:01:05.089Z,0.10
2023-01-23T00:03:32.043Z,0.10
2023-01-23T00:06:04.008Z,0.10
2023-01-23T00:08:31.102Z,0.10
2023-01-23T00:10:58.831Z,0.10
2023-01-23T00:13:25.463Z,0.10
2023-01-23T00:15:52.224Z,0.10
2023-01-23T00:18:18.823Z,0.00
2023-01-23T00:20:45.369Z,0.00
2023-01-23T00:23:13.281Z,0.00
2023-01-23T00:25:39.884Z,0.00
2023-01-23T00:28:06.788Z,0.00
2023-01-23T00:30:34.026Z,-0.10
2023-01-23T00:33:00.739Z,-0.20
2023-01-23T00:35:27.417Z,-0.20
2023-01-23T00:37:54.036Z,-0.20
2023-01-23T00:40:20.813Z,-0.20
2023-01-23T00:42:47.602Z,-0.20
2023-01-23T00:45:14.160Z,-0.10
2023-01-23T00:47:40.740Z,-0.10
2023-01-23T00:50:07.804Z,0.00
2023-01-23T00:52:35.053Z,0.00
2023-01-23T00:55:01.731Z,0.00
2023-01-23T00:57:28.603Z,0.00
2023-01-23T00:59:55.207Z,0.00
2023-01-23T01:02:21.786Z,-0.10
2023-01-23T01:04:48.336Z,-0.10
2023-01-23T01:07:14.928Z,0.00
2023-01-23T01:09:41.478Z,0.00
2023-01-23T01:12:08.119Z,0.00
2023-01-23T01:14:34.684Z,0.00
2023-01-23T01:17:01.310Z,-0.10
2023-01-23T01:19:28.204Z,-0.10
2023-01-23T01:21:54.817Z,-0.10
2023-01-23T01:24:21.451Z,-0.10
2023-01-23T01:26:48.026Z,-0.10
2023-01-23T01:29:14.620Z,-0.10
2023-01-23T01:31:41.224Z,0.00
2023-01-23T01:34:08.006Z,0.00
2023-01-23T01:36:34.799Z,0.00
2023-01-23T01:39:01.354Z,0.00
2023-01-23T01:41:27.995Z,0.00
2023-01-23T01:43:57.061Z,0.00
2023-01-23T01:46:26.455Z,0.00
2023-01-23T01:49:02.383Z,0.00
2023-01-23T01:51:31.174Z,0.10
2023-01-23T01:54:17.910Z,0.10
2023-01-23T01:56:51.840Z,0.10
2023-01-23T01:59:21.606Z,0.00
2023-01-23T02:01:53.379Z,0.00
2023-01-23T02:04:20.269Z,0.00
2023-01-23T02:06:47.003Z,0.10
2023-01-23T02:09:25.866Z,0.10
2023-01-23T02:11:52.673Z,0.00
2023-01-23T02:14:20.314Z,0.10
2023-01-23T02:16:50.941Z,0.10
2023-01-23T02:19:39.011Z,0.10
2023-01-23T02:22:47.711Z,0.10
2023-01-23T02:25:33.478Z,0.00
2023-01-23T02:28:01.336Z,0.10
2023-01-23T02:30:28.368Z,0.10
2023-01-23T02:32:55.096Z,0.10
2023-01-23T02:35:30.458Z,0.10
2023-01-23T02:38:02.173Z,0.10
2023-01-23T02:40:37.767Z,0.10
2023-01-23T02:43:05.873Z,0.10
2023-01-23T02:45:32.746Z,0.10
2023-01-23T02:48:01.422Z,0.10
2023-01-23T02:50:28.861Z,0.10
2023-01-23T02:52:57.823Z,0.00
2023-01-23T02:55:33.071Z,0.00
2023-01-23T02:58:19.912Z,0.00
2023-01-23T03:00:47.138Z,0.00
2023-01-23T03:03:14.121Z,0.00
2023-01-23T03:05:40.717Z,0.00
2023-01-23T03:08:07.387Z,0.00
2023-01-23T03:10:34.046Z,0.00
2023-01-23T03:13:03.377Z,0.00
2023-01-23T03:15:33.449Z,0.00
2023-01-23T03:18:00.359Z,0.00
2023-01-23T03:20:28.213Z,0.10
2023-01-23T03:22:55.149Z,0.00
2023-01-23T03:25:22.100Z,0.10
2023-01-23T03:27:48.776Z,0.10
2023-01-23T03:30:16.896Z,0.10
2023-01-23T03:32:44.921Z,0.10
2023-01-23T03:35:20.241Z,0.10
2023-01-23T03:37:48.098Z,0.10
2023-01-23T03:40:38.997Z,0.10
2023-01-23T03:43:05.933Z,0.10
2023-01-23T03:45:33.134Z,0.10
2023-01-23T03:47:59.959Z,0.10
2023-01-23T03:50:26.538Z,0.20
2023-01-23T03:52:53.151Z,0.10
2023-01-23T03:55:19.722Z,0.10
2023-01-23T03:57:46.284Z,0.10
2023-01-23T04:00:13.753Z,0.10
2023-01-23T04:02:41.222Z,0.10
2023-01-23T04:05:08.108Z,0.10
2023-01-23T04:07:34.704Z,0.10
2023-01-23T04:10:01.305Z,0.10
2023-01-23T04:12:27.894Z,0.10
2023-01-23T04:14:54.460Z,0.10
2023-01-23T04:17:21.072Z,0.10
2023-01-23T04:19:47.643Z,0.10
2023-01-23T04:22:14.253Z,0.10
2023-01-23T04:24:40.885Z,0.10
2023-01-23T04:27:07.485Z,0.10
2023-01-23T04:29:34.047Z,0.10
2023-01-23T04:32:00.660Z,0.10
2023-01-23T04:34:27.228Z,0.10
2023-01-23T04:36:53.757Z,0.10
2023-01-23T04:39:20.302Z,0.10
2023-01-23T04:41:46.936Z,0.10
2023-01-23T04:44:22.728Z,0.20
2023-01-23T04:46:52.827Z,0.10
2023-01-23T04:49:20.812Z,0.10
2023-01-23T04:51:48.614Z,0.10
2023-01-23T04:54:15.876Z,0.10
2023-01-23T04:56:42.997Z,0.20
2023-01-23T04:59:10.047Z,0.00
2023-01-23T05:01:37.174Z,0.20
2023-01-23T05:04:04.745Z,0.20
2023-01-23T05:06:31.885Z,0.20
2023-01-23T05:08:58.555Z,0.20
2023-01-23T05:11:25.240Z,0.20
2023-01-23T05:13:51.984Z,0.20
2023-01-23T05:16:18.587Z,0.20
2023-01-23T05:18:45.185Z,0.20
2023-01-23T05:21:11.917Z,0.20
2023-01-23T05:23:38.536Z,0.20
2023-01-23T05:26:05.224Z,0.20
2023-01-23T05:28:31.794Z,0.20
2023-01-23T05:30:58.408Z,0.20
2023-01-23T05:33:25.156Z,0.10
2023-01-23T05:35:51.712Z,0.20
2023-01-23T05:38:18.303Z,0.20
2023-01-23T05:40:44.888Z,0.20
2023-01-23T05:43:15.562Z,0.20
2023-01-23T05:45:42.128Z,0.20
2023-01-23T05:48:08.857Z,0.20
2023-01-23T05:50:35.455Z,0.20
2023-01-23T05:53:02.084Z,0.20
2023-01-23T05:55:28.646Z,0.20
2023-01-23T05:57:55.215Z,0.20
2023-01-23T06:00:22.182Z,0.10
2023-01-23T06:02:48.989Z,0.10
2023-01-23T06:05:16.249Z,0.10
2023-01-23T06:07:43.135Z,0.10
2023-01-23T06:10:10.185Z,0.10
2023-01-23T06:12:37.182Z,0.10
2023-01-23T06:15:04.809Z,0.10
2023-01-23T06:17:31.407Z,0.10
2023-01-23T06:19:58.822Z,0.10
2023-01-23T06:22:25.463Z,0.10
2023-01-23T06:24:52.635Z,0.10
2023-01-23T06:27:19.346Z,0.10
2023-01-23T06:29:45.987Z,0.10
2023-01-23T06:32:12.864Z,0.10
2023-01-23T06:34:39.671Z,0.10
2023-01-23T06:37:06.285Z,0.20
2023-01-23T06:39:34.185Z,0.10
2023-01-23T06:42:00.984Z,0.10
2023-01-23T06:44:27.746Z,0.10
2023-01-23T06:46:54.312Z,0.10
2023-01-23T06:49:20.912Z,0.00
2023-01-23T06:51:47.571Z,0.10
2023-01-23T06:54:14.107Z,0.00
2023-01-23T06:56:40.660Z,0.10
2023-01-23T06:59:07.210Z,0.00
2023-01-23T07:01:33.927Z,0.10
2023-01-23T07:04:00.483Z,0.10
2023-01-23T07:06:27.082Z,0.10
2023-01-23T07:08:53.691Z,0.10
2023-01-23T07:11:20.408Z,0.10
2023-01-23T07:13:46.950Z,0.10
2023-01-23T07:16:13.520Z,0.10
2023-01-23T07:18:40.099Z,0.10
2023-01-23T07:21:06.983Z,0.10
2023-01-23T07:23:34.766Z,0.20
2023-01-23T07:26:03.859Z,0.10
2023-01-23T07:28:31.105Z,0.20
2023-01-23T07:30:59.458Z,0.20
2023-01-23T07:33:26.318Z,0.20
2023-01-23T07:35:52.912Z,0.20
2023-01-23T07:38:19.732Z,0.20
2023-01-23T07:40:46.442Z,0.20
2023-01-23T07:43:12.977Z,0.20
2023-01-23T07:45:39.506Z,0.20
2023-01-23T07:48:06.197Z,0.20
2023-01-23T07:50:33.257Z,0.30
2023-01-23T07:53:00.145Z,0.30
2023-01-23T07:55:26.695Z,0.30
2023-01-23T07:57:53.310Z,0.40
2023-01-23T08:00:22.261Z,0.40
2023-01-23T08:02:50.806Z,0.50
2023-01-23T08:05:17.431Z,0.60
2023-01-23T08:07:44.048Z,0.60
2023-01-23T08:10:11.363Z,0.70
2023-01-23T08:12:37.959Z,0.70
2023-01-23T08:15:05.166Z,0.70
2023-01-23T08:17:31.735Z,0.70
2023-01-23T08:19:58.307Z,0.70
2023-01-23T08:22:24.917Z,0.70
2023-01-23T08:24:51.465Z,0.70
2023-01-23T08:27:18.073Z,0.70
2023-01-23T08:29:44.651Z,0.70
2023-01-23T08:32:11.480Z,0.70
2023-01-23T08:34:38.114Z,0.80
2023-01-23T08:37:04.760Z,1.00
2023-01-23T08:39:31.355Z,1.00
2023-01-23T08:41:58.061Z,1.00
2023-01-23T08:44:24.831Z,1.10
2023-01-23T08:46:51.447Z,1.00
2023-01-23T08:49:20.200Z,1.00
2023-01-23T08:51:46.992Z,0.90
2023-01-23T08:54:13.666Z,0.90
2023-01-23T08:56:41.222Z,0.90
2023-01-23T08:59:07.825Z,0.80
2023-01-23T09:01:34.410Z,0.80
2023-01-23T09:04:01.027Z,0.90
2023-01-23T09:06:27.626Z,1.00
2023-01-23T09:08:54.224Z,1.00
2023-01-23T09:11:22.642Z,1.00
2023-01-23T09:13:51.214Z,1.10
2023-01-23T09:16:19.614Z,1.20
2023-01-23T09:18:46.527Z,1.40
2023-01-23T09:21:15.457Z,1.60
2023-01-23T09:23:42.250Z,1.50
2023-01-23T09:26:11.142Z,1.60
2023-01-23T09:28:40.056Z,1.60
2023-01-23T09:31:08.726Z,1.60
2023-01-23T09:33:35.908Z,1.70
2023-01-23T09:36:03.752Z,1.60
2023-01-23T09:38:30.686Z,1.70
2023-01-23T09:40:58.808Z,1.70
2023-01-23T09:43:32.055Z,1.60
2023-01-23T09:46:12.811Z,1.60
2023-01-23T09:49:05.077Z,1.50
2023-01-23T09:51:37.941Z,1.40
2023-01-23T09:54:16.037Z,1.40
2023-01-23T09:56:46.086Z,1.20
2023-01-23T09:59:53.658Z,1.20
2023-01-23T10:02:27.097Z,1.00
2023-01-23T10:04:54.798Z,1.10
2023-01-23T10:07:33.669Z,1.10
2023-01-23T10:10:33.519Z,1.20
2023-01-23T10:13:32.282Z,1.30
2023-01-23T10:16:26.323Z,1.20
2023-01-23T10:19:21.955Z,1.20
2023-01-23T10:21:59.620Z,1.30
2023-01-23T10:24:55.983Z,1.30
2023-01-23T10:27:33.798Z,1.50
2023-01-23T10:30:19.378Z,1.40
2023-01-23T10:33:09.521Z,1.30
2023-01-23T10:35:56.350Z,1.30
2023-01-23T10:38:49.587Z,1.60
2023-01-23T10:41:23.337Z,1.60
2023-01-23T10:43:52.321Z,1.80
2023-01-23T10:46:21.939Z,1.90
2023-01-23T10:48:50.362Z,1.80
2023-01-23T10:51:52.615Z,1.60
2023-01-23T10:54:32.941Z,1.60
2023-01-23T10:57:09.170Z,1.60
2023-01-23T10:59:39.719Z,1.50
2023-01-23T11:02:18.253Z,1.50
2023-01-23T11:04:47.955Z,1.50
2023-01-23T11:07:17.100Z,1.40
2023-01-23T11:09:49.659Z,1.30
2023-01-23T11:12:28.406Z,1.20
2023-01-23T11:15:26.008Z,1.30
2023-01-23T11:17:54.511Z,1.30
2023-01-23T11:20:51.744Z,1.30
2023-01-23T11:23:18.724Z,1.40
2023-01-23T11:25:53.113Z,1.50
2023-01-23T11:28:34.217Z,1.60
2023-01-23T11:31:13.868Z,1.60
2023-01-23T11:33:57.536Z,1.90
2023-01-23T11:36:52.546Z,1.80
2023-01-23T11:39:41.151Z,2.00
2023-01-23T11:42:11.245Z,2.20
2023-01-23T11:44:45.986Z,1.90
2023-01-23T11:47:43.858Z,2.00
2023-01-23T11:50:22.597Z,2.10
2023-01-23T11:53:03.024Z,2.30
2023-01-23T11:55:51.003Z,2.20
2023-01-23T11:58:58.346Z,2.10
2023-01-23T12:01:33.903Z,2.00
2023-01-23T12:04:20.014Z,2.20
2023-01-23T12:07:04.780Z,2.10
2023-01-23T12:09:52.033Z,2.20
2023-01-23T12:12:51.493Z,2.20
2023-01-23T12:15:33.153Z,2.00
2023-01-23T12:18:31.305Z,1.90
2023-01-23T12:21:14.407Z,1.90
2023-01-23T12:24:36.282Z,2.00
2023-01-23T12:27:10.786Z,2.00
2023-01-23T12:30:04.692Z,1.90
2023-01-23T12:33:17.929Z,2.00
2023-01-23T12:36:08.047Z,1.90
2023-01-23T12:38:47.345Z,2.30
2023-01-23T12:41:34.418Z,2.60
2023-01-23T12:44:24.691Z,2.90
2023-01-23T12:46:58.222Z,3.20
2023-01-23T12:49:54.335Z,3.10
2023-01-23T12:52:33.096Z,3.00
2023-01-23T12:55:22.449Z,3.00
2023-01-23T12:58:07.177Z,3.00
2023-01-23T13:00:58.142Z,2.90
2023-01-23T13:03:58.825Z,3.10
2023-01-23T13:07:01.752Z,2.80
2023-01-23T13:09:46.374Z,2.60
2023-01-23T13:12:22.481Z,2.60
2023-01-23T13:15:14.927Z,2.50
2023-01-23T13:17:48.351Z,2.60
2023-01-23T13:20:47.473Z,2.60
2023-01-23T13:23:24.745Z,2.70
2023-01-23T13:26:23.023Z,2.90
2023-01-23T13:28:55.032Z,2.80
2023-01-23T13:31:50.381Z,2.70
2023-01-23T13:34:17.185Z,3.00
2023-01-23T13:36:45.783Z,3.30
2023-01-23T13:39:21.155Z,3.40
2023-01-23T13:42:14.102Z,3.30
2023-01-23T13:45:19.371Z,2.80
2023-01-23T14:22:18.051Z,2.80
2023-01-23T14:24:50.118Z,2.80
2023-01-23T14:27:36.777Z,2.80
2023-01-23T14:30:18.139Z,2.70
2023-01-23T14:32:46.244Z,2.70
2023-01-23T14:35:24.374Z,2.70
2023-01-23T14:37:53.554Z,2.60
2023-01-23T14:40:27.825Z,2.50
2023-01-23T14:43:04.893Z,2.60
2023-01-23T14:45:33.605Z,2.40
2023-01-23T14:48:06.526Z,2.30
2023-01-23T14:50:34.021Z,2.30
2023-01-23T14:53:02.984Z,2.40
2023-01-23T14:55:31.044Z,2.40
2023-01-23T14:58:00.867Z,2.30
2023-01-23T15:00:29.199Z,2.30
2023-01-23T15:02:56.328Z,2.30
2023-01-23T15:05:28.252Z,2.30
2023-01-23T15:08:20.480Z,2.20
2023-01-23T15:10:49.947Z,2.20
2023-01-23T15:13:23.100Z,2.20
2023-01-23T15:15:59.796Z,2.20
2023-01-23T15:18:28.660Z,2.20
2023-01-23T15:21:02.755Z,2.20
2023-01-23T15:23:35.427Z,2.10
2023-01-23T15:26:14.236Z,2.20
2023-01-23T15:28:48.600Z,2.10
2023-01-23T15:31:33.709Z,2.10
2023-01-23T15:34:22.692Z,2.10
2023-01-23T15:36:56.622Z,2.00
2023-01-23T15:39:29.443Z,2.00
2023-01-23T15:42:12.836Z,2.00
2023-01-23T15:44:40.409Z,2.10
2023-01-23T15:47:07.231Z,2.00
2023-01-23T15:49:37.448Z,2.00
2023-01-23T15:52:26.522Z,2.00
2023-01-23T15:54:56.637Z,2.00
2023-01-23T15:57:23.260Z,1.90
2023-01-23T15:59:50.155Z,2.00
2023-01-23T16:02:29.987Z,1.90
2023-01-23T16:04:57.078Z,2.00
2023-01-23T16:07:29.477Z,1.90
2023-01-23T16:09:56.602Z,1.90
2023-01-23T16:12:29.827Z,1.90
2023-01-23T16:14:57.435Z,1.90
2023-01-23T16:17:24.105Z,1.90
2023-01-23T16:19:50.746Z,1.80
2023-01-23T16:22:25.321Z,1.80
2023-01-23T16:24:52.335Z,1.70
2023-01-23T16:27:22.892Z,1.70
2023-01-23T16:29:50.098Z,1.60
2023-01-23T16:32:16.880Z,1.50
2023-01-23T16:34:43.859Z,1.60
2023-01-23T16:37:16.562Z,1.60
2023-01-23T16:39:44.839Z,1.50
2023-01-23T16:42:22.142Z,1.60
2023-01-23T16:44:49.415Z,1.60
2023-01-23T16:47:16.007Z,1.60
2023-01-23T16:49:51.954Z,1.60
2023-01-23T16:52:20.298Z,1.60
2023-01-23T16:54:47.069Z,1.60
2023-01-23T16:57:19.218Z,1.60
2023-01-23T16:59:47.407Z,1.60
2023-01-23T17:02:27.111Z,1.60
2023-01-23T17:04:54.398Z,1.60
2023-01-23T17:07:21.118Z,1.60
2023-01-23T17:09:49.120Z,1.60
2023-01-23T17:12:22.656Z,1.50
2023-01-23T17:14:52.363Z,1.60
2023-01-23T17:17:31.582Z,1.60
2023-01-23T17:19:59.097Z,1.60
2023-01-23T17:22:30.345Z,1.60
2023-01-23T17:24:57.042Z,1.60
2023-01-23T17:27:23.651Z,1.60
2023-01-23T17:29:50.367Z,1.60
2023-01-23T17:32:34.504Z,1.60
2023-01-23T17:35:03.362Z,1.60
2023-01-23T17:37:30.515Z,1.60
2023-01-23T17:39:57.081Z,1.60
2023-01-23T17:42:23.666Z,1.60
2023-01-23T17:44:50.540Z,1.60
2023-01-23T17:47:17.820Z,1.70
2023-01-23T17:49:51.175Z,1.60
2023-01-23T17:52:17.894Z,1.70
2023-01-23T17:54:44.448Z,1.60
2023-01-23T17:57:11.162Z,1.80
2023-01-23T17:59:37.725Z,1.60
2023-01-23T18:02:24.299Z,1.70
2023-01-23T18:04:50.925Z,1.60
2023-01-23T18:07:17.541Z,1.70
2023-01-23T18:09:44.119Z,1.60
2023-01-23T18:12:18.288Z,1.60
2023-01-23T18:14:56.299Z,1.60
2023-01-23T18:17:39.202Z,1.70
2023-01-23T18:20:16.874Z,1.70
2023-01-23T18:22:43.856Z,1.70
2023-01-23T18:25:18.158Z,1.60
2023-01-23T18:27:52.313Z,1.60
2023-01-23T18:30:37.779Z,1.70
2023-01-23T18:33:27.001Z,1.70
2023-01-23T18:36:25.961Z,1.70
2023-01-23T18:39:25.439Z,1.70
2023-01-23T18:42:22.998Z,1.70
2023-01-23T18:44:58.390Z,1.70
2023-01-23T18:47:25.664Z,1.80
2023-01-23T18:49:52.766Z,1.70
2023-01-23T18:52:39.581Z,1.70
2023-01-23T18:55:20.939Z,1.70
2023-01-23T18:57:58.919Z,1.70
2023-01-23T19:00:42.943Z,1.70
2023-01-23T19:03:17.791Z,1.70
2023-01-23T19:05:45.699Z,1.80
2023-01-23T19:08:27.884Z,1.70
2023-01-23T19:10:59.828Z,1.80
2023-01-23T19:13:44.509Z,1.70
2023-01-23T19:16:28.201Z,1.70
2023-01-23T19:19:25.893Z,1.70
2023-01-23T19:21:52.614Z,1.70
2023-01-23T19:24:19.886Z,1.80
2023-01-23T19:26:46.854Z,1.70
2023-01-23T19:29:21.956Z,1.70
2023-01-23T19:32:03.644Z,1.70
2023-01-23T19:34:31.189Z,1.70
2023-01-23T19:36:57.782Z,1.70
2023-01-23T19:39:24.355Z,1.70
2023-01-23T19:41:51.822Z,1.70
2023-01-23T19:44:20.336Z,1.70
2023-01-23T19:46:47.512Z,1.70
2023-01-23T19:49:14.207Z,1.70
2023-01-23T19:51:42.715Z,1.70
2023-01-23T19:54:14.237Z,1.80
2023-01-23T19:56:41.207Z,1.80
2023-01-23T19:59:08.143Z,1.80
2023-01-23T20:01:38.589Z,1.80
2023-01-23T20:04:07.549Z,1.80
2023-01-23T20:06:38.569Z,1.80
2023-01-23T20:09:05.239Z,1.80
2023-01-23T20:11:31.837Z,1.80
2023-01-23T20:13:58.410Z,1.90
2023-01-23T20:16:26.222Z,1.90
2023-01-23T20:18:54.013Z,1.90
2023-01-23T20:21:22.813Z,1.90
2023-01-23T20:23:49.897Z,1.90
2023-01-23T20:26:18.400Z,1.90
2023-01-23T20:28:55.051Z,1.90
2023-01-23T20:31:22.711Z,1.90
2023-01-23T20:33:49.983Z,1.90
2023-01-23T20:36:16.695Z,1.90
2023-01-23T20:38:43.602Z,1.80
2023-01-23T20:41:18.880Z,1.90
2023-01-23T20:43:46.404Z,1.90
2023-01-23T20:46:14.924Z,1.90
2023-01-23T20:48:46.253Z,1.90
2023-01-23T20:51:15.159Z,1.90
2023-01-23T20:53:42.698Z,1.90
2023-01-23T20:56:12.414Z,1.90
2023-01-23T20:58:59.974Z,1.90
2023-01-23T21:01:28.938Z,1.90
2023-01-23T21:03:55.795Z,1.90
2023-01-23T21:06:22.915Z,2.00
2023-01-23T21:08:49.538Z,2.00
2023-01-23T21:11:18.373Z,2.00
2023-01-23T21:13:50.856Z,2.00
2023-01-23T21:16:18.273Z,2.10
2023-01-23T21:18:46.882Z,2.10
2023-01-23T21:21:15.983Z,2.10
2023-01-23T21:23:43.229Z,2.10
2023-01-23T21:26:10.970Z,2.20
2023-01-23T21:28:38.320Z,2.20
2023-01-23T21:31:17.205Z,2.10
2023-01-23T21:33:44.815Z,2.20
2023-01-23T21:36:13.298Z,2.20
2023-01-23T21:38:39.894Z,2.20
2023-01-23T21:41:06.515Z,2.20
2023-01-23T21:43:34.404Z,2.20
2023-01-23T21:46:01.147Z,2.20
2023-01-23T21:48:32.612Z,2.20
2023-01-23T21:51:13.324Z,2.20
2023-01-23T21:53:42.370Z,2.20
2023-01-23T21:56:10.125Z,2.20
2023-01-23T21:58:37.057Z,2.20
2023-01-23T22:01:25.334Z,2.30
2023-01-23T22:03:53.643Z,2.20
2023-01-23T22:06:20.251Z,2.20
2023-01-23T22:08:47.313Z,2.10
2023-01-23T22:11:14.102Z,2.10
2023-01-23T22:13:40.973Z,2.10
2023-01-23T22:16:08.009Z,2.10
2023-01-23T22:18:34.805Z,2.10
2023-01-23T22:21:03.481Z,2.20
2023-01-23T22:23:31.175Z,2.20
2023-01-23T22:26:00.517Z,2.20
2023-01-23T22:28:27.427Z,2.20
2023-01-23T22:30:54.777Z,2.20
2023-01-23T22:33:22.506Z,2.20
2023-01-23T22:35:50.527Z,2.20
2023-01-23T22:38:17.139Z,2.20
2023-01-23T22:40:43.723Z,2.20
2023-01-23T22:43:10.543Z,2.20
2023-01-23T22:45:37.300Z,2.20
2023-01-23T22:48:04.755Z,2.30
2023-01-23T22:50:31.305Z,2.20
2023-01-23T22:52:57.885Z,2.20
2023-01-23T22:55:24.464Z,2.30
2023-01-23T22:57:53.186Z,2.30
2023-01-23T23:00:20.148Z,2.30
2023-01-23T23:02:47.086Z,2.20
2023-01-23T23:05:13.759Z,2.30
2023-01-23T23:07:40.530Z,2.20
2023-01-23T23:10:09.114Z,2.30
2023-01-23T23:12:35.701Z,2.30
2023-01-23T23:15:02.999Z,2.30
2023-01-23T23:17:30.157Z,2.30
2023-01-23T23:19:56.766Z,2.30
2023-01-23T23:22:23.551Z,2.20
2023-01-23T23:24:50.143Z,2.20
2023-01-23T23:27:16.740Z,2.20
2023-01-23T23:29:43.312Z,2.30
2023-01-23T23:32:09.927Z,2.30
2023-01-23T23:34:37.438Z,2.20
2023-01-23T23:37:04.202Z,2.20
2023-01-23T23:39:30.850Z,2.20
2023-01-23T23:41:58.438Z,2.20
2023-01-23T23:44:25.077Z,2.20
2023-01-23T23:46:51.673Z,2.20
2023-01-23T23:49:18.262Z,2.20
2023-01-23T23:51:44.828Z,2.20
2023-01-23T23:54:11.479Z,2.20
2023-01-23T23:56:38.069Z,2.20
2023-01-23T23:59:04.635Z,2.20
